Time;durP1;ratioP1;P1;durP2;ratioP2;P2;SDS_P1;SDS_P2;PMS_P1;PMS_P2;Temp;Humidity;BMP_temperature;BMP_pressure;BME280_temperature;BME280_humidity;BME280_pressure;Samples;Min_cycle;Max_cycle;Signal;HPM_P1;HPM_P2
2023/10/22 00:02:15;;;;;;;34.15;19.25;;;;;;;14.56;100.00;99245.31;5060581;28;20404;-89
2023/10/22 00:04:42;;;;;;;36.22;20.33;;;;;;;14.56;100.00;99243.22;5077869;28;20062;-88
2023/10/22 00:07:07;;;;;;;32.45;19.13;;;;;;;14.58;100.00;99249.22;5061353;28;20036;-89
2023/10/22 00:09:35;;;;;;;37.85;20.35;;;;;;;14.58;100.00;99260.72;5079429;28;20055;-81
2023/10/22 00:12:10;;;;;;;32.92;17.83;;;;;;;14.64;100.00;99263.50;5097313;28;20024;-81
2023/10/22 00:14:38;;;;;;;33.15;18.50;;;;;;;14.61;100.00;99258.84;5096018;28;20024;-80
2023/10/22 00:17:04;;;;;;;33.65;18.35;;;;;;;14.60;100.00;99260.16;5095002;28;20024;-79
2023/10/22 00:19:31;;;;;;;32.22;19.27;;;;;;;14.57;100.00;99249.75;5094416;28;20088;-80
2023/10/22 00:21:58;;;;;;;30.40;19.20;;;;;;;14.48;100.00;99247.28;5091638;28;20113;-81
2023/10/22 00:24:24;;;;;;;32.15;17.42;;;;;;;14.51;100.00;99257.69;5076791;28;20024;-80
2023/10/22 00:26:49;;;;;;;36.47;19.27;;;;;;;14.31;100.00;99228.19;5094100;28;20043;-80
2023/10/22 00:29:15;;;;;;;38.03;20.40;;;;;;;14.32;100.00;99240.47;5094574;28;20058;-79
2023/10/22 00:31:42;;;;;;;35.20;18.33;;;;;;;14.30;100.00;99241.00;5095177;28;20032;-80
2023/10/22 00:34:07;;;;;;;33.67;17.48;;;;;;;14.33;100.00;99253.50;5076919;28;20063;-81
2023/10/22 00:36:32;;;;;;;28.25;18.35;;;;;;;14.30;100.00;99243.88;5094747;28;20469;-80
2023/10/22 00:38:59;;;;;;;26.65;17.55;;;;;;;14.32;100.00;99246.97;5094156;28;20032;-80
2023/10/22 00:41:25;;;;;;;26.83;17.63;;;;;;;14.35;100.00;99242.22;5094943;28;20058;-81
2023/10/22 00:43:51;;;;;;;35.30;18.35;;;;;;;14.35;100.00;99245.88;5095372;28;20028;-80
2023/10/22 00:46:21;;;;;;;36.05;17.23;;;;;;;14.37;100.00;99240.38;5094768;28;20147;-80
2023/10/22 00:48:47;;;;;;;29.63;17.67;;;;;;;14.35;100.00;99230.72;5094023;28;20024;-81
2023/10/22 00:51:14;;;;;;;30.83;17.20;;;;;;;14.37;100.00;99239.59;5060190;28;20015;-80
2023/10/22 00:53:45;;;;;;;31.52;17.95;;;;;;;14.36;100.00;99238.03;5078050;28;20100;-80
2023/10/22 00:56:12;;;;;;;28.98;16.77;;;;;;;14.34;100.00;99240.66;5095065;28;20030;-82
2023/10/22 00:58:38;;;;;;;34.83;17.45;;;;;;;14.31;100.00;99242.56;5093990;28;20039;-79
2023/10/22 01:01:08;;;;;;;29.65;17.52;;;;;;;14.28;100.00;99245.75;5076588;28;20488;-81
2023/10/22 01:03:37;;;;;;;29.45;17.08;;;;;;;14.23;100.00;99238.72;5095910;28;20028;-80
2023/10/22 01:06:09;;;;;;;27.83;16.65;;;;;;;14.12;100.00;99223.78;5094041;28;20032;-81
2023/10/22 01:08:36;;;;;;;29.17;16.80;;;;;;;14.20;100.00;99236.97;5076739;28;20038;-80
2023/10/22 01:11:11;;;;;;;32.17;18.15;;;;;;;14.20;100.00;99233.31;5064245;28;20032;-79
2023/10/22 01:13:37;;;;;;;29.65;18.00;;;;;;;14.21;100.00;99244.25;5097717;28;20019;-80
2023/10/22 01:16:04;;;;;;;26.90;17.25;;;;;;;14.14;100.00;99239.13;5079012;28;20023;-80
2023/10/22 01:18:29;;;;;;;36.22;18.35;;;;;;;14.16;100.00;99239.38;5079882;28;20040;-79
2023/10/22 01:20:55;;;;;;;33.47;19.42;;;;;;;14.06;100.00;99225.94;5079817;28;20035;-79
2023/10/22 01:23:22;;;;;;;32.35;19.50;;;;;;;14.08;100.00;99229.84;5097954;28;20104;-81
2023/10/22 01:25:50;;;;;;;33.28;18.17;;;;;;;14.09;100.00;99239.97;5079923;28;20024;-81
2023/10/22 01:28:17;;;;;;;27.30;17.27;;;;;;;14.09;100.00;99231.38;5080213;28;20062;-87
2023/10/22 01:30:44;;;;;;;31.67;17.48;;;;;;;14.10;100.00;99221.44;5080707;28;20374;-87
2023/10/22 01:33:11;;;;;;;32.80;17.85;;;;;;;14.18;100.00;99225.22;5065335;28;20162;-88
2023/10/22 01:35:37;;;;;;;35.13;17.63;;;;;;;14.20;100.00;99224.69;5082669;28;20472;-87
2023/10/22 01:38:04;;;;;;;33.72;19.42;;;;;;;14.23;100.00;99230.13;5083746;28;20027;-87
2023/10/22 01:40:44;;;;;;;27.67;16.17;;;;;;;14.25;100.00;99238.97;5081106;28;20478;-88
2023/10/22 01:43:12;;;;;;;28.52;18.02;;;;;;;14.32;100.00;99241.22;5116193;28;20016;-87
2023/10/22 01:45:39;;;;;;;30.08;18.05;;;;;;;14.34;100.00;99234.91;5117185;28;20023;-87
2023/10/22 01:48:05;;;;;;;34.30;18.08;;;;;;;14.28;100.00;99214.88;5086830;28;20059;-86
2023/10/22 01:50:33;;;;;;;29.02;17.77;;;;;;;14.43;100.00;99243.91;5105778;28;20024;-89
2023/10/22 01:52:59;;;;;;;33.67;18.08;;;;;;;14.36;100.00;99217.91;5087862;28;20051;-87
2023/10/22 01:55:26;;;;;;;31.65;18.13;;;;;;;14.49;100.00;99240.19;5068883;28;20024;-86
2023/10/22 01:57:51;;;;;;;33.40;18.63;;;;;;;14.49;100.00;99231.56;5101257;28;20139;-88
2023/10/22 02:00:17;;;;;;;34.90;19.88;;;;;;;14.45;100.00;99222.47;5071920;28;20043;-87
2023/10/22 02:02:43;;;;;;;31.80;18.58;;;;;;;14.41;100.00;99214.19;5088092;28;20024;-86
2023/10/22 02:05:08;;;;;;;31.20;17.30;;;;;;;14.38;100.00;99206.63;5082833;28;20093;-89
2023/10/22 02:07:40;;;;;;;39.05;19.27;;;;;;;14.26;100.00;99196.66;5081432;28;20028;-89
2023/10/22 02:10:06;;;;;;;36.33;20.13;;;;;;;14.13;100.00;99191.63;5066262;28;20028;-90
2023/10/22 02:12:32;;;;;;;37.80;20.88;;;;;;;14.02;100.00;99188.91;5100418;28;20032;-86
2023/10/22 02:14:58;;;;;;;35.92;20.73;;;;;;;13.88;100.00;99175.81;5100667;28;20036;-87
2023/10/22 02:17:24;;;;;;;43.45;23.95;;;;;;;13.84;100.00;99178.19;5080811;28;20035;-88
2023/10/22 02:19:52;;;;;;;38.28;22.95;;;;;;;13.79;100.00;99185.56;5099828;28;20032;-87
2023/10/22 02:22:19;;;;;;;50.90;25.05;;;;;;;13.74;100.00;99182.78;5103952;28;20032;-87
2023/10/22 02:24:44;;;;;;;48.45;24.30;;;;;;;13.72;100.00;99182.53;5103765;28;20414;-87
2023/10/22 02:27:11;;;;;;;41.72;23.45;;;;;;;13.68;100.00;99194.34;5101959;28;20032;-90
2023/10/22 02:29:38;;;;;;;44.78;25.92;;;;;;;13.68;100.00;99197.22;5110787;28;20093;-88
2023/10/22 02:32:05;;;;;;;43.03;25.15;;;;;;;13.67;100.00;99184.19;5114764;28;20071;-88
2023/10/22 02:34:31;;;;;;;50.10;25.42;;;;;;;13.67;100.00;99195.66;5117683;28;20020;-88
2023/10/22 02:36:58;;;;;;;50.53;25.85;;;;;;;13.71;100.00;99192.47;5111260;28;20032;-91
2023/10/22 02:39:25;;;;;;;49.65;25.75;;;;;;;13.74;100.00;99192.16;5087040;28;20107;-90
2023/10/22 02:41:51;;;;;;;43.72;25.38;;;;;;;13.76;100.00;99185.88;5102968;28;20028;-91
2023/10/22 02:44:17;;;;;;;46.85;25.20;;;;;;;13.72;100.00;99183.31;5103963;28;20031;-89
2023/10/22 02:46:43;;;;;;;46.58;25.60;;;;;;;13.82;100.00;99190.22;5105687;28;20031;-90
2023/10/22 02:49:10;;;;;;;49.25;25.90;;;;;;;13.84;100.00;99190.44;5108053;28;20028;-90
2023/10/22 02:51:37;;;;;;;46.30;26.20;;;;;;;13.86;100.00;99190.69;5103400;28;20072;-90
2023/10/22 02:54:04;;;;;;;54.63;26.70;;;;;;;13.85;100.00;99196.97;5106461;28;20028;-90
2023/10/22 02:56:29;;;;;;;43.42;24.50;;;;;;;13.88;100.00;99201.66;5083495;28;20028;-90
2023/10/22 02:58:56;;;;;;;49.70;26.42;;;;;;;13.89;100.00;99198.22;5062800;28;20111;-91
2023/10/22 03:01:23;;;;;;;48.03;27.42;;;;;;;13.90;100.00;99201.88;5080809;28;20066;-90
2023/10/22 03:03:48;;;;;;;56.45;26.55;;;;;;;13.88;100.00;99201.66;5096933;28;20055;-87
2023/10/22 03:06:22;;;;;;;49.05;26.10;;;;;;;13.92;100.00;99202.13;5095196;28;20096;-86
2023/10/22 03:08:49;;;;;;;51.40;27.02;;;;;;;13.85;100.00;99194.09;5063629;28;20040;-89
2023/10/22 03:11:18;;;;;;;47.50;26.33;;;;;;;13.92;100.00;99207.84;5076377;28;20051;-88
2023/10/22 03:14:05;;;;;;;44.65;24.40;;;;;;;13.93;100.00;99203.66;5078075;28;20445;-90
2023/10/22 03:16:31;;;;;;;45.30;26.65;;;;;;;13.89;100.00;99203.19;5059115;28;20060;-88
2023/10/22 03:18:58;;;;;;;44.35;26.20;;;;;;;13.86;100.00;99195.66;5078088;28;20050;-88
2023/10/22 03:21:25;;;;;;;50.08;27.25;;;;;;;13.87;100.00;99198.00;5060295;28;20028;-89
2023/10/22 03:23:51;;;;;;;49.65;26.67;;;;;;;13.93;100.00;99204.44;5078130;28;20028;-89
2023/10/22 03:26:27;;;;;;;43.15;25.23;;;;;;;13.96;100.00;99200.47;5077277;28;20446;-89
2023/10/22 03:28:53;;;;;;;52.75;26.38;;;;;;;13.96;100.00;99203.34;5079334;28;20029;-89
2023/10/22 03:31:20;;;;;;;52.40;26.67;;;;;;;13.99;100.00;99204.34;5080456;28;20032;-88
2023/10/22 03:34:00;;;;;;;47.20;25.45;;;;;;;14.07;100.00;99204.50;5059994;28;20035;-88
2023/10/22 03:36:25;;;;;;;50.78;26.30;;;;;;;14.08;100.00;99206.84;5077673;28;20025;-87
2023/10/22 03:38:52;;;;;;;46.00;24.83;;;;;;;14.12;100.00;99206.53;5077075;28;20051;-89
2023/10/22 03:41:18;;;;;;;45.72;25.63;;;;;;;14.14;100.00;99209.63;5059221;28;20659;-86
2023/10/22 03:43:44;;;;;;;40.95;24.17;;;;;;;14.15;100.00;99211.97;5077639;28;20035;-90
2023/10/22 03:46:10;;;;;;;42.88;24.10;;;;;;;14.16;100.00;99209.84;5076833;28;20085;-89
2023/10/22 03:48:37;;;;;;;41.67;24.23;;;;;;;14.14;100.00;99206.75;5077855;28;20032;-90
2023/10/22 03:51:03;;;;;;;38.58;22.90;;;;;;;14.15;100.00;99200.47;5059458;28;20118;-90
2023/10/22 03:53:28;;;;;;;40.83;23.48;;;;;;;14.19;100.00;99215.28;5077777;28;20047;-90
2023/10/22 03:55:54;;;;;;;41.50;22.15;;;;;;;14.17;100.00;99199.94;5078434;28;20114;-90
2023/10/22 03:58:19;;;;;;;42.15;25.38;;;;;;;14.15;100.00;99196.81;5083222;28;20113;-88
2023/10/22 04:00:48;;;;;;;43.15;24.13;;;;;;;14.23;100.00;99209.25;5070063;28;20048;-88
2023/10/22 04:03:14;;;;;;;43.92;25.15;;;;;;;14.27;100.00;99210.47;5067213;28;20027;-88
2023/10/22 04:05:40;;;;;;;42.38;24.15;;;;;;;14.31;100.00;99210.16;5082810;28;20024;-92
2023/10/22 04:08:07;;;;;;;42.47;24.25;;;;;;;14.32;100.00;99214.59;5084889;28;20031;-90
2023/10/22 04:10:34;;;;;;;45.70;24.25;;;;;;;14.32;100.00;99215.38;5076869;28;20028;-90
2023/10/22 04:13:02;;;;;;;37.28;22.70;;;;;;;14.39;100.00;99228.31;5077374;28;20458;-89
2023/10/22 04:15:45;;;;;;;39.47;22.52;;;;;;;14.42;100.00;99233.00;5058962;28;20437;-90
2023/10/22 04:18:12;;;;;;;44.25;22.15;;;;;;;14.30;100.00;99208.59;5059622;28;20025;-89
2023/10/22 04:20:40;;;;;;;39.53;21.80;;;;;;;14.42;100.00;99219.41;5077465;28;20067;-90
2023/10/22 04:23:10;;;;;;;40.33;23.45;;;;;;;14.39;100.00;99213.94;5041898;28;20043;-87
2023/10/22 04:25:40;;;;;;;43.10;22.95;;;;;;;14.40;100.00;99224.13;5057712;28;20434;-87
2023/10/22 04:28:15;;;;;;;43.85;22.83;;;;;;;14.36;100.00;99223.66;5057667;28;20033;-87
2023/10/22 04:30:46;;;;;;;43.28;23.20;;;;;;;14.32;100.00;99218.25;5057525;28;20022;-87
2023/10/22 04:33:20;;;;;;;46.47;24.70;;;;;;;14.29;100.00;99219.31;5073874;28;20021;-86
2023/10/22 04:35:46;;;;;;;46.78;24.50;;;;;;;14.28;100.00;99223.50;5075475;28;20028;-87
2023/10/22 04:38:13;;;;;;;47.70;26.00;;;;;;;14.28;100.00;99225.63;5075581;28;20028;-88
2023/10/22 04:40:39;;;;;;;46.70;25.90;;;;;;;14.28;100.00;99222.75;5073323;28;20485;-87
2023/10/22 04:43:05;;;;;;;46.58;26.30;;;;;;;14.27;100.00;99224.06;5072727;28;20055;-86
2023/10/22 04:45:33;;;;;;;51.10;26.92;;;;;;;14.19;100.00;99215.28;5072217;28;20061;-89
2023/10/22 04:47:58;;;;;;;43.50;26.45;;;;;;;14.12;100.00;99210.19;5073360;28;20477;-87
2023/10/22 04:50:26;;;;;;;48.50;25.08;;;;;;;14.13;100.00;99210.97;5074750;28;20063;-86
2023/10/22 04:52:54;;;;;;;44.17;25.05;;;;;;;14.12;100.00;99218.03;5077896;28;20032;-86
2023/10/22 04:55:22;;;;;;;45.28;25.00;;;;;;;14.07;100.00;99210.25;5079389;28;20032;-87
2023/10/22 04:57:50;;;;;;;47.75;26.30;;;;;;;14.05;100.00;99210.78;5082549;28;20032;-87
2023/10/22 05:00:17;;;;;;;44.38;26.58;;;;;;;14.02;100.00;99211.91;5077361;28;20036;-85
2023/10/22 05:02:42;;;;;;;41.90;24.77;;;;;;;13.99;100.00;99216.63;5095092;28;20468;-88
2023/10/22 05:05:08;;;;;;;43.88;24.92;;;;;;;13.99;100.00;99225.22;5076368;28;20028;-86
2023/10/22 05:07:34;;;;;;;44.60;24.67;;;;;;;13.94;100.00;99223.22;5076921;28;20032;-87
2023/10/22 05:10:01;;;;;;;43.65;25.48;;;;;;;13.97;100.00;99230.75;5095331;28;20058;-85
2023/10/22 05:12:26;;;;;;;42.05;24.92;;;;;;;14.01;100.00;99236.19;5097581;28;20036;-88
2023/10/22 05:14:53;;;;;;;41.35;23.33;;;;;;;14.11;100.00;99236.56;5098768;28;20131;-88
2023/10/22 05:17:19;;;;;;;41.85;24.30;;;;;;;14.15;100.00;99234.16;5093548;28;20048;-87
2023/10/22 05:19:47;;;;;;;39.65;24.10;;;;;;;14.19;100.00;99232.53;5096475;28;20091;-90
2023/10/22 05:22:13;;;;;;;43.17;23.88;;;;;;;14.25;100.00;99238.19;5080571;28;20032;-87
2023/10/22 05:24:39;;;;;;;38.65;23.35;;;;;;;14.26;100.00;99231.91;5078333;28;20092;-88
2023/10/22 05:27:07;;;;;;;44.35;23.40;;;;;;;14.30;100.00;99240.22;5098468;28;20066;-87
2023/10/22 05:29:48;;;;;;;43.33;23.88;;;;;;;14.31;100.00;99233.16;5084846;28;20032;-88
2023/10/22 05:32:15;;;;;;;47.92;24.65;;;;;;;14.29;100.00;99230.03;5109408;28;20083;-86
2023/10/22 05:34:42;;;;;;;45.85;24.80;;;;;;;14.31;100.00;99227.41;5106590;28;20174;-87
2023/10/22 05:37:09;;;;;;;43.47;25.02;;;;;;;14.32;100.00;99235.50;5071460;28;20040;-87
2023/10/22 05:39:38;;;;;;;42.17;25.08;;;;;;;14.33;100.00;99231.28;5085759;28;20047;-87
2023/10/22 05:42:06;;;;;;;45.05;25.40;;;;;;;14.31;100.00;99221.66;5097388;28;20111;-91
2023/10/22 05:44:37;;;;;;;44.20;25.25;;;;;;;14.30;100.00;99209.38;5078306;28;20035;-89
2023/10/22 05:47:17;;;;;;;41.00;23.90;;;;;;;14.35;100.00;99230.72;5062054;28;20047;-89
2023/10/22 05:49:44;;;;;;;41.58;23.50;;;;;;;14.28;100.00;99225.63;5100376;28;20109;-89
2023/10/22 05:52:10;;;;;;;45.58;26.63;;;;;;;14.36;100.00;99235.94;5081171;28;20362;-89
2023/10/22 05:54:36;;;;;;;42.65;25.02;;;;;;;14.38;100.00;99244.00;5082358;28;20053;-90
2023/10/22 05:57:04;;;;;;;42.45;24.35;;;;;;;14.41;100.00;99249.47;5101820;28;20028;-90
2023/10/22 05:59:29;;;;;;;41.78;24.33;;;;;;;14.40;100.00;99259.41;5099305;28;20040;-90
2023/10/22 06:01:57;;;;;;;41.38;24.27;;;;;;;14.40;100.00;99252.88;5079677;28;20027;-90
2023/10/22 06:04:23;;;;;;;41.25;23.33;;;;;;;14.40;100.00;99250.00;5080866;28;20039;-90
2023/10/22 06:06:50;;;;;;;46.00;23.25;;;;;;;14.41;100.00;99243.72;5080237;28;20020;-89
2023/10/22 06:09:15;;;;;;;42.65;22.77;;;;;;;14.41;100.00;99257.31;5065099;28;20043;-88
2023/10/22 06:11:42;;;;;;;44.17;24.92;;;;;;;14.42;100.00;99261.72;5106464;28;20081;-89
2023/10/22 06:14:08;;;;;;;40.65;23.38;;;;;;;14.35;100.00;99257.38;5069319;28;20485;-89
2023/10/22 06:16:34;;;;;;;39.65;23.05;;;;;;;14.48;100.00;99267.41;5079897;28;20027;-87
2023/10/22 06:19:00;;;;;;;39.45;23.83;;;;;;;14.49;100.00;99271.81;5097676;28;20111;-87
2023/10/22 06:21:25;;;;;;;39.33;23.15;;;;;;;14.55;100.00;99276.16;5100166;28;20048;-85
2023/10/22 06:23:51;;;;;;;44.10;24.17;;;;;;;14.59;100.00;99278.75;5085348;28;20032;-85
2023/10/22 06:26:17;;;;;;;38.80;21.80;;;;;;;14.61;100.00;99273.22;5093454;28;20095;-87
2023/10/22 06:28:44;;;;;;;38.00;23.20;;;;;;;14.59;100.00;99273.00;5080760;28;20103;-85
2023/10/22 06:31:12;;;;;;;44.80;23.92;;;;;;;14.60;100.00;99277.41;5097332;28;20369;-85
2023/10/22 06:33:39;;;;;;;41.55;22.98;;;;;;;14.65;100.00;99277.34;5097184;28;20051;-84
2023/10/22 06:36:22;;;;;;;39.70;23.08;;;;;;;14.57;100.00;99269.88;5078615;28;20017;-88
2023/10/22 06:39:08;;;;;;;43.08;23.15;;;;;;;14.67;100.00;99279.69;5082689;28;20023;-87
2023/10/22 06:41:35;;;;;;;39.88;22.42;;;;;;;14.66;100.00;99275.25;5097781;28;20024;-85
2023/10/22 06:44:02;;;;;;;43.05;22.92;;;;;;;14.63;100.00;99277.09;5088825;28;20020;-81
2023/10/22 06:46:27;;;;;;;44.00;23.05;;;;;;;14.65;100.00;99274.47;5118899;28;20043;-83
2023/10/22 06:48:54;;;;;;;37.17;22.52;;;;;;;14.64;100.00;99270.03;5118402;28;20008;-83
2023/10/22 06:51:22;;;;;;;43.90;23.60;;;;;;;14.66;100.00;99275.25;5110389;28;20031;-82
2023/10/22 06:53:49;;;;;;;45.28;24.45;;;;;;;14.66;100.00;99276.03;5110362;28;20028;-84
2023/10/22 06:56:16;;;;;;;40.92;22.75;;;;;;;14.67;100.00;99285.44;5106384;28;20040;-81
2023/10/22 06:58:44;;;;;;;43.47;25.05;;;;;;;14.65;100.00;99282.31;5087217;28;20093;-84
2023/10/22 07:01:11;;;;;;;47.25;26.65;;;;;;;14.65;100.00;99279.44;5064699;28;20088;-86
2023/10/22 07:03:46;;;;;;;45.67;25.88;;;;;;;14.65;100.00;99290.94;5098284;28;20031;-84
2023/10/22 07:06:32;;;;;;;44.42;24.90;;;;;;;14.66;100.00;99289.63;5080095;28;20032;-84
2023/10/22 07:08:59;;;;;;;39.75;23.13;;;;;;;14.62;100.00;99287.06;5077654;28;20043;-81
2023/10/22 07:11:25;;;;;;;38.58;22.33;;;;;;;14.63;100.00;99287.81;5076998;28;20112;-80
2023/10/22 07:13:53;;;;;;;39.70;21.85;;;;;;;14.66;100.00;99292.50;5077687;28;20031;-84
2023/10/22 07:16:18;;;;;;;35.47;21.60;;;;;;;14.65;100.00;99291.72;5096061;28;20032;-82
2023/10/22 07:18:44;;;;;;;42.05;22.48;;;;;;;14.70;100.00;99296.59;5095807;28;20089;-83
2023/10/22 07:21:10;;;;;;;33.47;19.80;;;;;;;14.73;100.00;99295.50;5095548;28;20038;-81
2023/10/22 07:23:38;;;;;;;34.75;17.23;;;;;;;14.74;100.00;99296.28;5061015;28;20062;-83
2023/10/22 07:26:04;;;;;;;30.63;17.38;;;;;;;14.71;100.00;99295.28;5078080;28;20060;-81
2023/10/22 07:28:32;;;;;;;34.67;18.02;;;;;;;14.73;100.00;99297.59;5094739;28;20095;-83
2023/10/22 07:30:59;;;;;;;30.95;16.17;;;;;;;14.71;100.00;99306.78;5085277;28;20035;-82
2023/10/22 07:33:27;;;;;;;30.60;17.60;;;;;;;14.70;100.00;99305.22;5098810;28;20020;-75
2023/10/22 07:36:05;;;;;;;35.53;17.15;;;;;;;14.73;100.00;99307.00;5099504;28;20510;-76
2023/10/22 07:38:38;;;;;;;44.90;19.35;;;;;;;14.66;100.00;99295.38;5084548;28;20137;-75
2023/10/22 07:41:14;;;;;;;55.20;22.42;;;;;;;14.66;100.00;99310.53;5100400;28;20168;-77
2023/10/22 07:43:44;;;;;;;147.35;36.95;;;;;;;14.62;100.00;99312.16;5092700;28;20485;-83
2023/10/22 07:46:15;;;;;;;115.55;30.83;;;;;;;14.57;100.00;99318.75;5096673;28;20376;-76
2023/10/22 07:48:45;;;;;;;127.03;36.22;;;;;;;14.56;100.00;99322.94;5089941;28;20055;-83
2023/10/22 07:51:16;;;;;;;;;;;;;;;14.52;100.00;99323.25;5097732;28;20093;-82
2023/10/22 07:53:55;;;;;;;195.30;47.70;;;;;;;14.50;100.00;99330.84;5103811;28;19977;-81
2023/10/22 07:56:25;;;;;;;110.57;35.38;;;;;;;14.44;100.00;99330.94;5095866;28;20039;-81
2023/10/22 07:59:06;;;;;;;130.82;37.85;;;;;;;14.39;100.00;99331.78;5105239;28;20047;-83
2023/10/22 08:01:33;;;;;;;125.00;39.20;;;;;;;14.34;100.00;99344.13;5118860;28;20110;-82
2023/10/22 08:04:08;;;;;;;169.48;45.17;;;;;;;14.26;100.00;99341.13;5082090;28;20095;-81
2023/10/22 08:06:35;;;;;;;94.97;33.15;;;;;;;14.24;100.00;99348.72;5085917;28;20023;-76
2023/10/22 08:09:02;;;;;;;72.35;29.17;;;;;;;14.19;100.00;99347.47;5117401;28;20035;-75
2023/10/22 08:11:29;;;;;;;79.75;32.30;;;;;;;14.15;100.00;99351.97;5118272;28;20051;-81
2023/10/22 08:13:55;;;;;;;85.95;30.40;;;;;;;14.11;100.00;99355.16;5102590;28;20034;-81
2023/10/22 08:16:24;;;;;;;86.40;31.75;;;;;;;14.11;100.00;99354.38;5100431;28;20038;-74
2023/10/22 08:18:53;;;;;;;76.90;30.17;;;;;;;14.07;100.00;99351.03;5107004;28;20393;-77
2023/10/22 08:21:23;;;;;;;50.70;24.45;;;;;;;14.06;100.00;99355.22;5096610;28;20102;-76
2023/10/22 08:23:51;;;;;;;73.40;27.55;;;;;;;14.04;100.00;99355.75;5111139;28;20091;-80
2023/10/22 08:26:16;;;;;;;60.90;25.42;;;;;;;14.02;100.00;99355.53;5093494;28;20038;-78
2023/10/22 08:28:45;;;;;;;56.97;25.50;;;;;;;14.06;100.00;99358.09;5100796;28;20228;-80
2023/10/22 08:31:17;;;;;;;53.72;23.75;;;;;;;14.06;100.00;99355.22;5089588;28;20071;-75
2023/10/22 08:33:45;;;;;;;45.80;22.60;;;;;;;14.05;100.00;99362.28;5103125;28;20107;-79
2023/10/22 08:36:11;;;;;;;46.13;22.85;;;;;;;13.99;100.00;99362.34;5101097;28;20081;-82
2023/10/22 08:38:37;;;;;;;48.33;22.20;;;;;;;13.87;100.00;99350.22;5086914;28;20051;-82
2023/10/22 08:41:11;;;;;;;54.53;23.25;;;;;;;13.92;100.00;99369.47;5084047;28;20041;-76
2023/10/22 08:43:43;;;;;;;53.30;23.05;;;;;;;13.88;100.00;99369.00;5101205;28;20039;-80
2023/10/22 08:46:15;;;;;;;46.58;22.83;;;;;;;13.77;100.00;99363.38;5107362;28;20036;-75
2023/10/22 08:48:44;;;;;;;43.03;22.00;;;;;;;13.73;100.00;99379.34;5093829;28;20024;-77
2023/10/22 08:51:15;;;;;;;51.40;24.23;;;;;;;13.70;100.00;99374.66;5159839;22;20046;-76
2023/10/22 08:53:42;;;;;;;50.33;24.73;;;;;;;13.67;100.00;99382.28;5137174;27;20039;-75
2023/10/22 08:56:08;;;;;;;42.35;21.40;;;;;;;13.65;100.00;99367.66;5117297;27;20027;-80
2023/10/22 08:58:52;;;;;;;36.03;18.08;;;;;;;13.64;100.00;99379.69;5120037;28;20023;-81
2023/10/22 09:01:23;;;;;;;30.73;17.77;;;;;;;13.56;100.00;99376.63;5133103;27;20043;-77
2023/10/22 09:03:50;;;;;;;29.30;15.70;;;;;;;13.44;100.00;99375.91;5151569;27;20070;-76
2023/10/22 09:06:17;;;;;;;34.47;17.60;;;;;;;13.50;100.00;99387.34;5136081;27;20014;-79
2023/10/22 09:08:45;;;;;;;22.65;12.98;;;;;;;13.47;100.00;99379.81;5154499;27;20097;-78
2023/10/22 09:11:15;;;;;;;18.33;10.90;;;;;;;13.38;100.00;99386.69;5150914;27;20027;-76
2023/10/22 09:13:40;;;;;;;16.55;11.35;;;;;;;13.31;100.00;99395.88;5133983;28;20035;-77
2023/10/22 09:16:07;;;;;;;17.52;10.85;;;;;;;13.31;100.00;99387.25;5127152;28;20076;-74
2023/10/22 09:18:33;;;;;;;14.05;9.27;;;;;;;13.29;100.00;99400.59;5095061;28;20036;-78
2023/10/22 09:21:06;;;;;;;11.23;8.43;;;;;;;13.25;100.00;99397.22;5113732;28;20034;-78
2023/10/22 09:23:32;;;;;;;11.43;7.53;;;;;;;13.22;100.00;99409.78;5112855;28;20398;-78
2023/10/22 09:25:58;;;;;;;9.68;7.50;;;;;;;13.20;100.00;99407.44;5112952;28;20073;-77
2023/10/22 09:28:26;;;;;;;8.25;6.22;;;;;;;13.21;100.00;99416.81;5087843;28;20380;-75
2023/10/22 09:30:56;;;;;;;7.20;6.05;;;;;;;13.21;100.00;99414.72;5077547;28;20060;-77
2023/10/22 09:33:38;;;;;;;5.68;5.07;;;;;;;13.21;100.00;99414.72;5097003;28;20032;-79
2023/10/22 09:36:09;;;;;;;5.32;4.63;;;;;;;13.20;100.00;99415.25;5078385;28;20028;-80
2023/10/22 09:38:47;;;;;;;6.72;4.63;;;;;;;13.20;100.00;99413.16;5095658;28;20108;-78
2023/10/22 09:41:18;;;;;;;4.18;3.78;;;;;;;13.20;100.00;99413.16;5096800;28;20085;-79
2023/10/22 09:43:46;;;;;;;7.00;4.18;;;;;;;13.18;100.00;99420.75;5105229;28;21141;-79
2023/10/22 09:46:12;;;;;;;3.90;3.53;;;;;;;13.22;100.00;99419.16;5092856;28;20019;-79
2023/10/22 09:48:42;;;;;;;4.05;3.60;;;;;;;13.15;100.00;99408.25;5102920;28;20027;-78
2023/10/22 09:51:10;;;;;;;3.45;2.92;;;;;;;13.18;100.00;99417.88;5098539;28;20040;-83
2023/10/22 09:53:51;;;;;;;3.53;3.10;;;;;;;13.24;100.00;99422.28;5080571;28;20032;-78
2023/10/22 09:56:19;;;;;;;5.43;3.45;;;;;;;13.27;100.00;99429.81;5105205;28;20020;-78
2023/10/22 09:58:49;;;;;;;6.07;3.80;;;;;;;13.32;100.00;99434.72;5109245;28;20020;-76
2023/10/22 10:01:15;;;;;;;7.85;4.40;;;;;;;13.36;100.00;99438.09;5113110;28;20070;-76
2023/10/22 10:03:42;;;;;;;5.10;3.22;;;;;;;13.42;100.00;99435.19;5113341;28;20055;-84
2023/10/22 10:06:08;;;;;;;3.80;2.80;;;;;;;13.44;100.00;99429.69;5097409;28;20020;-81
2023/10/22 10:08:36;;;;;;;15.05;3.80;;;;;;;13.39;100.00;99425.53;5078767;28;20389;-82
2023/10/22 10:11:12;;;;;;;4.60;2.70;;;;;;;13.51;100.00;99429.13;5096088;28;20023;-75
2023/10/22 10:13:40;;;;;;;6.05;3.00;;;;;;;13.55;100.00;99439.00;5095976;28;20027;-76
2023/10/22 10:16:07;;;;;;;3.97;2.30;;;;;;;13.55;100.00;99435.34;5096660;28;20035;-81
2023/10/22 10:19:04;;;;;;;2.85;1.88;;;;;;;13.55;100.00;99436.13;5077887;28;20089;-78
2023/10/22 10:22:09;;;;;;;4.90;2.03;;;;;;;13.60;100.00;99434.53;5096380;28;20065;-75
2023/10/22 10:24:34;;;;;;;2.40;1.70;;;;;;;13.64;100.00;99429.25;5093424;28;20081;-74
2023/10/22 10:27:00;;;;;;;7.47;1.70;;;;;;;13.64;100.00;99435.00;5077856;28;20051;-76
2023/10/22 10:29:28;;;;;;;1.95;1.52;;;;;;;13.66;100.00;99443.09;5096553;28;20111;-76
2023/10/22 10:32:12;;;;;;;4.90;2.35;;;;;;;13.61;100.00;99423.81;5077555;28;20040;-75
2023/10/22 10:34:39;;;;;;;2.80;1.52;;;;;;;13.62;100.00;99442.59;5080656;28;20044;-80
2023/10/22 10:37:24;;;;;;;1.10;1.00;;;;;;;13.61;100.00;99443.91;5061670;28;20082;-78
2023/10/22 10:40:11;;;;;;;2.78;2.00;;;;;;;13.58;100.00;99439.25;5096569;28;20028;-77
2023/10/22 10:42:37;;;;;;;1.75;1.40;;;;;;;13.61;100.00;99455.41;5073971;28;20032;-78
2023/10/22 10:45:06;;;;;;;1.40;1.15;;;;;;;13.64;100.00;99457.97;5106245;28;20028;-80
2023/10/22 10:47:42;;;;;;;1.77;1.48;;;;;;;13.62;100.00;99459.84;5086063;28;20036;-76
2023/10/22 10:50:12;;;;;;;2.03;1.88;;;;;;;13.62;100.00;99462.72;5090996;28;20052;-77
2023/10/22 10:52:52;;;;;;;3.47;1.30;;;;;;;13.59;100.00;99463.78;5099247;28;20366;-80
2023/10/22 10:55:21;;;;;;;1.25;1.15;;;;;;;13.62;100.00;99465.56;5086838;28;20024;-78
2023/10/22 10:57:49;;;;;;;1.17;1.08;;;;;;;13.64;100.00;99460.09;5086656;28;20024;-78
2023/10/22 11:00:20;;;;;;;2.60;1.35;;;;;;;13.71;100.00;99470.97;5094030;28;20043;-76
2023/10/22 11:02:50;;;;;;;3.28;1.33;;;;;;;13.68;100.00;99464.22;5095436;28;20035;-78
2023/10/22 11:05:42;;;;;;;1.45;0.90;;;;;;;13.67;100.00;99465.53;5095933;28;20457;-77
2023/10/22 11:08:22;;;;;;;3.22;1.20;;;;;;;13.67;100.00;99470.50;5094823;28;20062;-76
2023/10/22 11:10:48;;;;;;;1.67;1.33;;;;;;;13.66;100.00;99478.31;5092646;28;20469;-77
2023/10/22 11:13:28;;;;;;;1.02;0.95;;;;;;;13.70;100.00;99473.06;5093537;28;20030;-74
2023/10/22 11:16:03;;;;;;;1.65;1.00;;;;;;;13.71;100.00;99473.84;5095080;28;20028;-74
2023/10/22 11:18:31;;;;;;;1.88;1.10;;;;;;;13.71;100.00;99485.34;5110798;28;20032;-75
2023/10/22 11:20:57;;;;;;;0.90;0.90;;;;;;;13.70;100.00;99483.75;5095349;28;20097;-77